Time;durP1;ratioP1;P1;durP2;ratioP2;P2;SDS_P1;SDS_P2;PMS_P1;PMS_P2;Temp;Humidity;BMP_temperature;BMP_pressure;BME280_temperature;BME280_humidity;BME280_pressure;Samples;Min_cycle;Max_cycle;Signal;HPM_P1;HPM_P2
2022/10/01 00:01:46;;;;;;;1.80;1.05;;;16.40;79.00;;;;;;5007733;28;20029;-75
2022/10/01 00:04:12;;;;;;;3.15;1.60;;;16.50;79.80;;;;;;5007370;28;20025;-74
2022/10/01 00:06:37;;;;;;;2.10;1.30;;;16.50;78.30;;;;;;5025672;28;20212;-74
2022/10/01 00:09:03;;;;;;;1.50;1.20;;;16.50;78.30;;;;;;5025292;28;20117;-75
2022/10/01 00:11:29;;;;;;;2.42;1.27;;;16.50;78.70;;;;;;5007519;28;20109;-74
2022/10/01 00:13:56;;;;;;;3.15;1.50;;;16.50;78.10;;;;;;5025253;28;20029;-74
2022/10/01 00:16:24;;;;;;;2.78;1.40;;;16.60;78.00;;;;;;5025492;28;20021;-74
2022/10/01 00:18:52;;;;;;;2.90;1.10;;;16.50;78.30;;;;;;5025510;28;20876;-75
2022/10/01 00:21:21;;;;;;;2.33;1.17;;;16.50;78.20;;;;;;5009580;28;20495;-74
2022/10/01 00:23:47;;;;;;;1.67;1.25;;;16.50;78.30;;;;;;5024815;28;20513;-75
2022/10/01 00:26:26;;;;;;;1.90;1.27;;;16.50;78.10;;;;;;5007416;28;20056;-74
2022/10/01 00:29:17;;;;;;;2.60;1.33;;;16.50;78.10;;;;;;5025173;28;20048;-74
2022/10/01 00:31:43;;;;;;;2.20;1.30;;;16.50;77.80;;;;;;5020444;28;20466;-74
2022/10/01 00:34:10;;;;;;;1.20;1.00;;;16.50;78.40;;;;;;5006906;28;20108;-74
2022/10/01 00:36:36;;;;;;;2.22;1.30;;;16.50;78.50;;;;;;5007478;28;20407;-74
2022/10/01 00:39:02;;;;;;;1.88;1.45;;;16.40;79.30;;;;;;5006955;28;20025;-74
2022/10/01 00:41:30;;;;;;;2.13;1.38;;;16.40;78.80;;;;;;5007068;28;20563;-75
2022/10/01 00:43:58;;;;;;;2.67;1.50;;;16.40;77.70;;;;;;5024618;28;20025;-73
2022/10/01 00:46:26;;;;;;;3.33;1.30;;;16.40;78.60;;;;;;5024612;28;20037;-75
2022/10/01 00:49:01;;;;;;;2.35;1.38;;;16.40;78.90;;;;;;5006938;28;20021;-74
2022/10/01 00:51:31;;;;;;;2.75;1.25;;;16.40;77.40;;;;;;5004171;28;20035;-74
2022/10/01 00:54:03;;;;;;;1.90;1.30;;;16.40;78.50;;;;;;5006786;28;20356;-74
2022/10/01 00:56:30;;;;;;;2.17;1.40;;;16.40;79.30;;;;;;5025147;28;20476;-74
2022/10/01 00:58:56;;;;;;;2.25;1.30;;;16.40;77.80;;;;;;5007737;28;20511;-74
2022/10/01 01:01:23;;;;;;;2.60;1.50;;;16.40;78.90;;;;;;5024789;28;20452;-74
2022/10/01 01:03:49;;;;;;;2.85;1.50;;;16.40;77.60;;;;;;5024491;28;20025;-75
2022/10/01 01:06:15;;;;;;;1.98;1.13;;;16.40;77.50;;;;;;5024708;28;20141;-74
2022/10/01 01:08:41;;;;;;;3.80;1.40;;;16.40;78.50;;;;;;5024482;28;20474;-75
2022/10/01 01:11:27;;;;;;;2.80;1.50;;;16.40;78.10;;;;;;5024462;28;20744;-74
2022/10/01 01:14:15;;;;;;;1.90;1.27;;;16.50;78.00;;;;;;5024363;28;20028;-74
2022/10/01 01:16:50;;;;;;;3.05;1.40;;;16.50;78.40;;;;;;5024198;28;20105;-74
2022/10/01 01:19:19;;;;;;;2.53;1.30;;;16.50;78.00;;;;;;5020118;28;20029;-74
2022/10/01 01:21:50;;;;;;;3.03;1.40;;;16.50;77.90;;;;;;5022421;28;20898;-74
2022/10/01 01:24:19;;;;;;;1.85;1.30;;;16.50;77.90;;;;;;5004937;28;20033;-74
2022/10/01 01:26:58;;;;;;;2.65;1.35;;;16.50;78.10;;;;;;5024089;28;20053;-74
2022/10/01 01:29:37;;;;;;;2.03;1.33;;;16.50;78.50;;;;;;5024135;28;20041;-74
2022/10/01 01:32:11;;;;;;;3.75;1.40;;;16.50;78.70;;;;;;5023909;28;20488;-74
2022/10/01 01:34:42;;;;;;;2.58;1.30;;;16.50;78.30;;;;;;5023885;28;20155;-74
2022/10/01 01:37:11;;;;;;;3.45;1.70;;;16.40;77.80;;;;;;5005885;28;20027;-75
2022/10/01 01:39:40;;;;;;;2.05;1.10;;;16.40;78.60;;;;;;5024102;28;20034;-74
2022/10/01 01:42:20;;;;;;;3.25;1.50;;;16.40;78.30;;;;;;5023887;28;20383;-73
2022/10/01 01:44:47;;;;;;;2.33;1.40;;;16.40;77.80;;;;;;5006130;28;20127;-74
2022/10/01 01:47:13;;;;;;;3.47;1.40;;;16.40;77.60;;;;;;5024070;28;20018;-74
2022/10/01 01:49:40;;;;;;;2.05;1.42;;;16.40;77.70;;;;;;5006447;28;20562;-74
2022/10/01 01:52:14;;;;;;;2.60;1.50;;;16.40;77.60;;;;;;5006227;28;20041;-74
2022/10/01 01:54:43;;;;;;;2.50;1.38;;;16.40;77.40;;;;;;5006299;28;20737;-74
2022/10/01 01:57:11;;;;;;;3.20;1.50;;;16.40;78.20;;;;;;5006247;28;20116;-73
2022/10/01 01:59:39;;;;;;;2.25;1.45;;;16.40;78.40;;;;;;5006476;28;20025;-73
2022/10/01 02:02:07;;;;;;;2.75;1.20;;;16.40;78.00;;;;;;5023782;28;20041;-74
2022/10/01 02:04:45;;;;;;;2.63;1.50;;;16.40;79.30;;;;;;5024433;28;20037;-74
2022/10/01 02:07:47;;;;;;;2.28;1.48;;;16.40;78.50;;;;;;5006840;28;20538;-74
2022/10/01 02:10:15;;;;;;;2.60;1.30;;;16.40;78.40;;;;;;5010426;28;20025;-75
2022/10/01 02:12:47;;;;;;;1.92;1.20;;;16.40;78.70;;;;;;5010450;28;20437;-74
2022/10/01 02:15:28;;;;;;;2.05;1.45;;;16.40;77.70;;;;;;5010553;28;20071;-75
2022/10/01 02:17:58;;;;;;;3.00;1.42;;;16.40;78.40;;;;;;5010614;28;20068;-74
2022/10/01 02:21:03;;;;;;;1.88;1.30;;;16.40;77.80;;;;;;5007065;28;20669;-73
2022/10/01 02:23:35;;;;;;;2.80;1.40;;;16.50;77.90;;;;;;5017755;28;20029;-75
2022/10/01 02:26:09;;;;;;;2.30;1.40;;;16.50;78.00;;;;;;5028188;28;20093;-74
2022/10/01 02:28:38;;;;;;;3.00;1.58;;;16.50;78.50;;;;;;5026712;28;20037;-73
2022/10/01 02:31:04;;;;;;;2.65;1.30;;;16.50;78.20;;;;;;5028083;28;20123;-74
2022/10/01 02:33:33;;;;;;;2.75;1.40;;;16.40;78.80;;;;;;5026449;28;20444;-73
2022/10/01 02:36:01;;;;;;;2.40;1.60;;;16.40;78.60;;;;;;5027384;28;20060;-74
2022/10/01 02:38:28;;;;;;;1.70;1.40;;;16.40;78.80;;;;;;5027496;28;20033;-76
2022/10/01 02:40:59;;;;;;;2.85;1.50;;;16.40;79.00;;;;;;5009261;28;20028;-75
2022/10/01 02:43:31;;;;;;;;;;;16.40;79.20;;;;;;5027517;28;20025;-75
2022/10/01 02:46:02;;;;;;;2.05;1.30;;;16.40;79.20;;;;;;5004172;28;20407;-75
2022/10/01 02:48:28;;;;;;;1.88;1.38;;;16.40;79.00;;;;;;5005300;28;20033;-75
2022/10/01 02:51:08;;;;;;;2.20;1.50;;;16.40;78.80;;;;;;5009447;28;20030;-75
2022/10/01 02:53:38;;;;;;;1.70;1.30;;;16.40;79.10;;;;;;5027304;28;20026;-75
2022/10/01 02:56:05;;;;;;;2.83;1.52;;;16.40;79.80;;;;;;5009774;28;20529;-75
2022/10/01 02:58:31;;;;;;;3.00;1.40;;;16.40;79.00;;;;;;5027589;28;20077;-75
2022/10/01 03:00:56;;;;;;;1.98;1.20;;;16.40;79.30;;;;;;5027507;28;20064;-74
2022/10/01 03:03:24;;;;;;;2.22;1.30;;;16.40;80.00;;;;;;5009145;28;20026;-74
2022/10/01 03:05:50;;;;;;;2.50;1.40;;;16.40;80.40;;;;;;5009496;28;20037;-74
2022/10/01 03:08:16;;;;;;;2.63;1.48;;;16.40;79.80;;;;;;5027368;28;20107;-75
2022/10/01 03:10:41;;;;;;;2.42;1.40;;;16.40;80.20;;;;;;5027344;28;20022;-74
2022/10/01 03:13:07;;;;;;;3.05;1.50;;;16.40;79.30;;;;;;5027036;28;20022;-75
2022/10/01 03:15:32;;;;;;;2.30;1.42;;;16.40;78.90;;;;;;5027018;28;20022;-75
2022/10/01 03:17:58;;;;;;;2.50;1.52;;;16.40;79.60;;;;;;5009259;28;20467;-74
2022/10/01 03:20:23;;;;;;;3.22;1.42;;;16.40;79.20;;;;;;5020606;28;20041;-75
2022/10/01 03:22:49;;;;;;;2.90;1.65;;;16.40;79.50;;;;;;5019608;28;20029;-74
2022/10/01 03:25:15;;;;;;;3.75;1.77;;;16.40;79.50;;;;;;5025660;28;20036;-75
2022/10/01 03:27:41;;;;;;;2.83;1.50;;;16.40;79.30;;;;;;5025640;28;20038;-75
2022/10/01 03:30:08;;;;;;;1.92;1.25;;;16.40;79.60;;;;;;5026966;28;20032;-74
2022/10/01 03:32:33;;;;;;;2.40;1.40;;;16.40;79.40;;;;;;5026445;28;20029;-74
2022/10/01 03:34:59;;;;;;;3.25;1.40;;;16.50;79.80;;;;;;5029950;28;20542;-74
2022/10/01 03:37:24;;;;;;;3.97;1.58;;;16.40;79.80;;;;;;5026778;28;20112;-74
2022/10/01 03:39:50;;;;;;;2.55;1.48;;;16.40;79.80;;;;;;5026971;28;20036;-74
2022/10/01 03:42:16;;;;;;;2.00;1.35;;;16.40;79.30;;;;;;5008725;28;20390;-74
2022/10/01 03:44:42;;;;;;;2.70;1.60;;;16.40;79.50;;;;;;5008891;28;20027;-74
2022/10/01 03:47:08;;;;;;;2.53;1.63;;;16.30;80.10;;;;;;5026533;28;20026;-77
2022/10/01 03:49:34;;;;;;;2.63;1.45;;;16.50;79.70;;;;;;5008681;28;20146;-74
2022/10/01 03:52:01;;;;;;;2.88;1.75;;;16.30;80.00;;;;;;5008500;28;20029;-73
2022/10/01 03:54:29;;;;;;;2.80;1.50;;;16.30;80.30;;;;;;5026493;28;20052;-75
2022/10/01 03:56:54;;;;;;;4.15;1.50;;;16.30;80.20;;;;;;5008582;28;20069;-74
2022/10/01 03:59:20;;;;;;;2.05;1.25;;;16.30;80.00;;;;;;5008875;28;20538;-75
2022/10/01 04:01:45;;;;;;;2.10;1.20;;;16.30;80.10;;;;;;5025853;28;20032;-76
2022/10/01 04:04:11;;;;;;;3.15;1.35;;;16.30;80.50;;;;;;5025816;28;20029;-74
2022/10/01 04:06:36;;;;;;;2.38;1.20;;;16.30;79.90;;;;;;5026050;28;20037;-74
2022/10/01 04:09:02;;;;;;;10.70;1.77;;;16.30;80.00;;;;;;5008568;28;20026;-74
2022/10/01 04:11:29;;;;;;;2.42;1.33;;;16.30;80.80;;;;;;5025853;28;20085;-74
2022/10/01 04:13:56;;;;;;;14.38;2.28;;;16.30;80.30;;;;;;5008202;28;20030;-74
2022/10/01 04:16:23;;;;;;;8.02;1.80;;;16.30;79.80;;;;;;5011770;28;20021;-74
2022/10/01 04:18:49;;;;;;;13.70;2.40;;;16.30;80.20;;;;;;5007700;28;20029;-74
2022/10/01 04:21:14;;;;;;;11.85;2.72;;;16.40;79.90;;;;;;5025156;28;20025;-74
2022/10/01 04:23:40;;;;;;;10.40;1.88;;;16.40;80.40;;;;;;5019023;28;20119;-73
2022/10/01 04:26:06;;;;;;;6.53;1.80;;;16.40;80.40;;;;;;5016521;28;20037;-74
2022/10/01 04:28:32;;;;;;;8.30;1.85;;;16.50;80.30;;;;;;5008763;28;20061;-73
2022/10/01 04:33:41;;;;;;;9.48;1.85;;;16.60;80.10;;;;;;5026443;28;20040;-76
2022/10/01 04:36:07;;;;;;;10.05;2.05;;;16.60;80.00;;;;;;5026699;28;20029;-73
2022/10/01 04:38:33;;;;;;;7.38;1.75;;;16.60;80.20;;;;;;5025506;28;20072;-75
2022/10/01 04:40:59;;;;;;;7.97;1.95;;;16.70;81.70;;;;;;5026283;28;20025;-74
2022/10/01 04:43:24;;;;;;;7.47;1.60;;;16.80;81.60;;;;;;5019975;28;20410;-73
2022/10/01 04:45:50;;;;;;;8.40;1.75;;;16.90;82.10;;;;;;5020444;28;20436;-73
2022/10/01 04:48:15;;;;;;;6.68;1.90;;;17.00;82.60;;;;;;5009563;28;20076;-73
2022/10/01 04:50:41;;;;;;;10.35;1.90;;;17.10;83.80;;;;;;5025580;28;20056;-74
2022/10/01 04:53:06;;;;;;;9.77;1.90;;;17.20;83.20;;;;;;5016073;28;20053;-74
2022/10/01 04:55:32;;;;;;;8.15;1.80;;;17.30;83.30;;;;;;5009982;28;20029;-76
2022/10/01 04:57:57;;;;;;;5.45;1.70;;;17.40;84.20;;;;;;5025819;28;20030;-74
2022/10/01 05:00:25;;;;;;;5.93;1.55;;;17.40;83.60;;;;;;5025607;28;20041;-74
2022/10/01 05:02:51;;;;;;;9.57;1.77;;;17.50;84.50;;;;;;5014454;28;20252;-74
2022/10/01 05:05:19;;;;;;;8.75;1.52;;;17.50;84.50;;;;;;5025615;28;20033;-74
2022/10/01 05:07:45;;;;;;;6.57;1.48;;;17.60;84.80;;;;;;5024083;28;20053;-75
2022/10/01 05:10:13;;;;;;;5.07;1.60;;;17.60;85.00;;;;;;5016266;28;20026;-76
2022/10/01 05:12:40;;;;;;;7.30;1.52;;;17.60;85.10;;;;;;5017157;28;20022;-75
2022/10/01 05:15:06;;;;;;;7.38;1.88;;;17.70;85.50;;;;;;5025911;28;20021;-79
2022/10/01 05:17:32;;;;;;;4.30;1.40;;;17.70;85.70;;;;;;5022316;28;20033;-75
2022/10/01 05:19:58;;;;;;;9.00;1.83;;;17.80;86.10;;;;;;5008051;28;20440;-75
2022/10/01 05:22:24;;;;;;;10.73;1.73;;;17.80;86.20;;;;;;5025943;28;20113;-75
2022/10/01 05:24:50;;;;;;;9.68;2.15;;;17.80;86.20;;;;;;5024690;28;20060;-77
2022/10/01 05:27:16;;;;;;;7.38;1.48;;;17.90;86.60;;;;;;5029682;28;20021;-83
2022/10/01 05:29:42;;;;;;;6.50;1.50;;;18.00;85.80;;;;;;5028948;28;20492;-77
2022/10/01 05:32:08;;;;;;;5.78;1.40;;;18.10;85.90;;;;;;5024845;28;20033;-75
2022/10/01 05:34:34;;;;;;;5.07;1.55;;;18.10;85.90;;;;;;5023982;28;20116;-76
2022/10/01 05:37:01;;;;;;;7.43;1.80;;;18.10;85.70;;;;;;5005073;28;20121;-76
2022/10/01 05:39:27;;;;;;;5.47;1.65;;;18.20;85.70;;;;;;5023212;28;20040;-78
2022/10/01 05:41:54;;;;;;;5.38;1.70;;;18.20;85.80;;;;;;5023445;28;20029;-75
2022/10/01 05:44:23;;;;;;;6.78;1.50;;;18.20;85.60;;;;;;5014637;28;20087;-76
2022/10/01 05:46:49;;;;;;;5.80;1.50;;;18.20;85.70;;;;;;5027174;28;20092;-76
2022/10/01 05:49:16;;;;;;;4.18;1.40;;;18.20;85.60;;;;;;5028566;28;20037;-76
2022/10/01 05:51:42;;;;;;;5.97;1.40;;;18.20;85.40;;;;;;5011178;28;20116;-76
2022/10/01 05:54:08;;;;;;;5.00;1.40;;;18.30;85.30;;;;;;5028269;28;20021;-75
2022/10/01 05:56:34;;;;;;;4.97;1.50;;;18.30;85.00;;;;;;5019030;28;20037;-76
2022/10/01 05:59:00;;;;;;;6.30;1.40;;;18.30;84.80;;;;;;5029047;28;20026;-76
2022/10/01 06:01:26;;;;;;;6.30;1.55;;;18.30;84.50;;;;;;5010375;28;20116;-77
2022/10/01 06:03:52;;;;;;;6.93;1.65;;;18.30;84.30;;;;;;5009329;28;20025;-75
2022/10/01 06:06:22;;;;;;;6.65;1.65;;;18.30;83.90;;;;;;5018877;28;20856;-76
2022/10/01 06:08:48;;;;;;;7.70;1.80;;;18.00;84.10;;;;;;5029280;28;20040;-77
2022/10/01 06:11:14;;;;;;;6.68;1.60;;;18.00;84.60;;;;;;5029219;28;20026;-75
2022/10/01 06:13:43;;;;;;;5.95;1.30;;;17.90;85.00;;;;;;5029147;28;20035;-76
2022/10/01 06:16:08;;;;;;;3.88;1.40;;;17.80;85.40;;;;;;5028519;28;20018;-76
2022/10/01 06:18:34;;;;;;;5.32;1.55;;;17.70;85.40;;;;;;5027991;28;20036;-77
2022/10/01 06:20:59;;;;;;;5.00;1.58;;;17.70;85.40;;;;;;5028591;28;20068;-77
2022/10/01 06:23:25;;;;;;;6.25;1.30;;;17.70;85.40;;;;;;5029057;28;20514;-75
2022/10/01 06:25:51;;;;;;;5.05;1.20;;;17.70;85.30;;;;;;5027876;28;20040;-76
2022/10/01 06:28:17;;;;;;;4.47;1.25;;;17.60;85.10;;;;;;5029283;28;20026;-76
2022/10/01 06:30:43;;;;;;;5.22;1.40;;;17.60;85.40;;;;;;5018963;28;20036;-76
2022/10/01 06:33:12;;;;;;;4.10;1.27;;;17.50;85.00;;;;;;5017584;28;20025;-77
2022/10/01 06:35:42;;;;;;;4.18;1.25;;;17.50;85.10;;;;;;5028457;28;20057;-77
2022/10/01 06:38:09;;;;;;;4.65;1.10;;;17.50;85.30;;;;;;5028334;28;20044;-77
2022/10/01 06:40:36;;;;;;;4.28;1.20;;;17.40;85.20;;;;;;5014226;28;20033;-77
2022/10/01 06:43:01;;;;;;;4.55;1.23;;;17.40;85.00;;;;;;4991111;28;20030;-77
2022/10/01 06:45:28;;;;;;;4.10;1.10;;;17.40;85.20;;;;;;5019775;28;20040;-76
2022/10/01 06:48:01;;;;;;;5.80;1.45;;;17.40;85.60;;;;;;5015474;28;20813;-75
2022/10/01 06:50:28;;;;;;;4.05;1.40;;;17.30;85.10;;;;;;5028816;28;20368;-76
2022/10/01 06:52:54;;;;;;;3.53;1.08;;;17.30;85.10;;;;;;5028664;28;20113;-76
2022/10/01 06:55:31;;;;;;;5.10;1.30;;;17.30;85.20;;;;;;5027103;28;20033;-76
2022/10/01 06:58:02;;;;;;;4.43;1.23;;;17.30;85.20;;;;;;5028134;28;20169;-74
2022/10/01 07:00:30;;;;;;;3.33;1.00;;;17.20;85.10;;;;;;5020395;28;20025;-75
2022/10/01 07:02:55;;;;;;;2.63;1.10;;;17.20;85.20;;;;;;5012790;28;20341;-75
2022/10/01 07:05:25;;;;;;;4.20;1.38;;;17.20;85.70;;;;;;5027769;28;20551;-76
2022/10/01 07:07:51;;;;;;;2.38;0.90;;;17.20;85.10;;;;;;5027361;28;20029;-76
2022/10/01 07:10:19;;;;;;;5.20;1.20;;;17.20;85.00;;;;;;5016516;28;20025;-75
2022/10/01 07:12:48;;;;;;;2.70;1.02;;;17.20;85.10;;;;;;5014338;28;20072;-75
2022/10/01 07:15:19;;;;;;;3.30;0.80;;;17.20;85.10;;;;;;5026329;28;20021;-75
2022/10/01 07:17:48;;;;;;;2.33;1.03;;;17.20;85.10;;;;;;5027672;28;20034;-75
2022/10/01 07:20:16;;;;;;;3.30;1.00;;;17.10;84.70;;;;;;5028294;28;20033;-77
2022/10/01 07:22:42;;;;;;;2.50;0.90;;;17.10;84.70;;;;;;5008902;28;20045;-75
2022/10/01 07:25:08;;;;;;;4.70;1.13;;;17.10;84.20;;;;;;5027338;28;20442;-75
2022/10/01 07:27:34;;;;;;;3.95;1.02;;;17.10;84.20;;;;;;5028157;28;20037;-75
2022/10/01 07:29:59;;;;;;;5.05;1.20;;;17.10;84.10;;;;;;5027118;28;20029;-76
2022/10/01 07:36:12;;;;;;;20.92;2.53;;;17.30;84.20;;;;;;5078266;28;20039;-76
2022/10/01 07:38:54;;;;;;;20.95;2.55;;;17.10;83.70;;;;;;5112976;27;20076;-75
2022/10/01 07:41:52;;;;;;;16.45;2.15;;;17.20;83.70;;;;;;5088322;28;20485;-83
2022/10/01 07:44:48;;;;;;;15.73;2.10;;;16.90;83.50;;;;;;5106821;27;20034;-75
2022/10/01 07:48:01;;;;;;;18.73;2.25;;;17.10;83.60;;;;;;5107019;28;20019;-76
2022/10/01 07:50:48;;;;;;;14.13;2.60;;;17.00;83.70;;;;;;5016525;28;20072;-75
2022/10/01 07:57:11;;;;;;;13.10;2.10;;;16.90;83.80;;;;;;5076228;28;20111;-75
2022/10/01 07:59:39;;;;;;;11.32;1.67;;;17.50;84.30;;;;;;5086599;28;20059;-76
2022/10/01 08:02:28;;;;;;;13.40;1.83;;;17.00;84.10;;;;;;5087164;28;20028;-76
2022/10/01 08:05:17;;;;;;;15.93;2.00;;;17.00;84.20;;;;;;5086901;28;20477;-74
2022/10/01 08:14:19;;;;;;;14.18;1.83;;;16.90;84.30;;;;;;5007561;28;19916;-76
2022/10/01 08:20:41;;;;;;;11.35;1.65;;;17.00;84.20;;;;;;5052593;28;20734;-75
2022/10/01 08:23:35;;;;;;;10.53;1.40;;;17.00;84.10;;;;;;5056383;28;20123;-77
2022/10/01 08:26:27;;;;;;;6.03;1.40;;;17.00;84.10;;;;;;5056740;28;20795;-76
2022/10/01 08:39:28;;;;;;;10.43;1.40;;;16.90;84.30;;;;;;4972773;28;20061;-75
2022/10/01 08:42:14;;;;;;;9.80;1.50;;;16.90;84.30;;;;;;5045541;28;20102;-78
2022/10/01 08:45:25;;;;;;;6.97;1.45;;;16.90;84.50;;;;;;5047442;28;20040;-76
2022/10/01 08:48:50;;;;;;;5.35;1.52;;;17.00;84.50;;;;;;5064958;28;20536;-78
2022/10/01 08:51:24;;;;;;;7.28;1.40;;;16.80;85.00;;;;;;5065387;28;20143;-75
2022/10/01 08:54:17;;;;;;;8.00;1.55;;;16.80;84.50;;;;;;5076635;28;20054;-77
2022/10/01 08:56:52;;;;;;;5.65;1.38;;;16.80;84.60;;;;;;5106990;28;20033;-79
2022/10/01 08:59:32;;;;;;;5.78;1.65;;;17.20;84.80;;;;;;5105798;27;20751;-78
2022/10/01 09:01:58;;;;;;;4.07;1.08;;;16.80;84.50;;;;;;5107044;28;20390;-78
2022/10/01 09:04:27;;;;;;;6.68;1.20;;;16.80;84.60;;;;;;5109673;28;20027;-78
2022/10/01 09:07:38;;;;;;;3.70;0.90;;;16.80;84.60;;;;;;5107463;28;20042;-77
2022/10/01 09:10:42;;;;;;;5.70;1.10;;;16.80;84.60;;;;;;5061590;28;20055;-77
2022/10/01 09:13:32;;;;;;;4.70;1.20;;;16.80;84.50;;;;;;5104671;28;20027;-79
2022/10/01 09:16:13;;;;;;;4.90;1.00;;;16.80;84.40;;;;;;5104612;28;20036;-78
2022/10/01 09:19:00;;;;;;;5.80;1.42;;;16.80;84.40;;;;;;5105351;28;20134;-77
2022/10/01 09:21:58;;;;;;;8.95;1.35;;;16.80;84.30;;;;;;5106810;28;20050;-77
2022/10/01 09:24:42;;;;;;;3.55;1.08;;;16.80;84.20;;;;;;5105475;28;20022;-77
2022/10/01 09:27:17;;;;;;;4.78;1.00;;;16.80;84.20;;;;;;5104388;28;20026;-78
2022/10/01 09:30:09;;;;;;;3.42;1.00;;;16.80;84.20;;;;;;5105870;28;20037;-76
2022/10/01 09:32:48;;;;;;;4.93;1.10;;;16.90;84.30;;;;;;5104084;28;20030;-76
2022/10/01 09:35:42;;;;;;;6.00;1.05;;;16.80;84.30;;;;;;5106487;28;20031;-75
2022/10/01 09:38:17;;;;;;;6.47;1.10;;;16.80;84.80;;;;;;5105821;28;20053;-75
2022/10/01 09:40:53;;;;;;;4.60;1.00;;;16.80;84.40;;;;;;5107384;28;20392;-74
2022/10/01 09:43:30;;;;;;;7.03;1.20;;;16.80;84.50;;;;;;5104570;28;20027;-75
2022/10/01 09:45:56;;;;;;;5.18;1.00;;;16.70;84.50;;;;;;5105862;28;20031;-75
2022/10/01 09:48:33;;;;;;;3.75;1.23;;;16.70;84.50;;;;;;5103856;28;20038;-75
2022/10/01 09:51:07;;;;;;;3.55;1.27;;;16.70;84.60;;;;;;5104373;28;20540;-76
2022/10/01 09:54:03;;;;;;;2.72;1.08;;;16.70;84.60;;;;;;5105552;28;20197;-76
2022/10/01 09:56:37;;;;;;;5.80;1.23;;;16.70;84.70;;;;;;5105271;28;20024;-78
2022/10/01 09:59:07;;;;;;;5.78;1.85;;;16.70;84.70;;;;;;5104261;28;20028;-75
2022/10/01 10:01:48;;;;;;;5.10;1.10;;;16.70;84.70;;;;;;5104993;28;20040;-76
2022/10/01 10:04:19;;;;;;;6.50;1.40;;;16.70;84.60;;;;;;5105696;28;20115;-76
2022/10/01 10:06:46;;;;;;;5.28;1.38;;;16.70;84.70;;;;;;5105431;28;20036;-77
2022/10/01 10:09:25;;;;;;;5.30;1.10;;;16.70;84.60;;;;;;5104782;28;20053;-76
2022/10/01 10:11:50;;;;;;;4.03;1.10;;;16.70;84.60;;;;;;5105312;28;20088;-79
2022/10/01 10:14:29;;;;;;;4.18;1.13;;;16.60;84.40;;;;;;5105057;28;20028;-75
2022/10/01 10:16:55;;;;;;;4.78;1.13;;;16.70;84.40;;;;;;5103643;28;20023;-74
2022/10/01 10:19:25;;;;;;;3.83;1.10;;;16.80;84.40;;;;;;5103790;28;20481;-75
2022/10/01 10:21:53;;;;;;;4.95;1.35;;;16.80;84.30;;;;;;5105341;28;20186;-75
2022/10/01 10:24:33;;;;;;;6.60;1.30;;;16.80;84.20;;;;;;5103658;28;20479;-76
2022/10/01 10:27:00;;;;;;;5.43;1.40;;;16.80;84.20;;;;;;5105191;28;20032;-77
2022/10/01 10:29:32;;;;;;;4.55;1.15;;;16.80;84.10;;;;;;5104253;28;20365;-75
2022/10/01 10:32:02;;;;;;;4.47;1.27;;;16.90;84.10;;;;;;5107135;28;20030;-74
2022/10/01 10:34:41;;;;;;;5.40;1.30;;;16.90;83.90;;;;;;5108561;28;20020;-76
2022/10/01 10:37:14;;;;;;;5.72;1.75;;;16.90;83.80;;;;;;5107504;28;20030;-78
2022/10/01 10:39:44;;;;;;;4.63;1.25;;;16.90;83.70;;;;;;5107421;28;20039;-75
2022/10/01 10:42:14;;;;;;;3.90;1.35;;;16.90;83.60;;;;;;5108241;28;20110;-77
2022/10/01 10:44:42;;;;;;;4.20;1.65;;;16.90;83.70;;;;;;5107170;28;20602;-76
2022/10/01 10:47:12;;;;;;;2.83;1.30;;;16.90;83.60;;;;;;5107235;28;20031;-76
2022/10/01 10:49:55;;;;;;;3.85;1.20;;;16.90;83.70;;;;;;5100419;28;20135;-74
2022/10/01 10:52:28;;;;;;;4.38;1.40;;;16.90;83.70;;;;;;5100070;28;20023;-77
2022/10/01 10:54:55;;;;;;;4.28;1.15;;;16.90;83.70;;;;;;5105668;28;20103;-76
2022/10/01 10:57:27;;;;;;;5.93;1.45;;;16.90;83.60;;;;;;5105929;28;20045;-75
2022/10/01 11:00:02;;;;;;;16.05;2.35;;;17.00;83.40;;;;;;5107541;27;20028;-75
2022/10/01 11:02:30;;;;;;;10.88;2.00;;;17.00;83.20;;;;;;5107501;28;20027;-75
2022/10/01 11:05:03;;;;;;;12.93;1.95;;;17.00;83.00;;;;;;5109920;28;20035;-74
2022/10/01 11:07:29;;;;;;;17.80;2.60;;;17.00;82.90;;;;;;5109904;28;20019;-76
2022/10/01 11:10:00;;;;;;;16.08;2.20;;;17.00;82.90;;;;;;5110485;28;20077;-77
2022/10/01 11:12:50;;;;;;;17.48;2.47;;;17.10;82.70;;;;;;5109446;28;20061;-78
2022/10/01 11:15:22;;;;;;;15.27;2.40;;;17.10;82.60;;;;;;5096161;28;20119;-75
2022/10/01 11:18:15;;;;;;;13.35;1.92;;;17.20;82.60;;;;;;5110473;28;20034;-76
2022/10/01 11:20:50;;;;;;;14.73;2.22;;;17.20;82.40;;;;;;5109747;28;20755;-75
2022/10/01 11:23:36;;;;;;;8.27;1.75;;;17.20;82.40;;;;;;5107967;28;20046;-77
2022/10/01 11:26:12;;;;;;;10.18;1.73;;;17.20;82.40;;;;;;5110447;28;20027;-76
2022/10/01 11:29:14;;;;;;;8.73;1.77;;;17.20;82.20;;;;;;5110327;28;20023;-75
2022/10/01 11:31:49;;;;;;;7.07;1.48;;;17.20;82.30;;;;;;5086800;28;20031;-76
2022/10/01 11:34:36;;;;;;;7.57;2.00;;;17.20;82.40;;;;;;5109053;28;20023;-76
2022/10/01 11:37:10;;;;;;;14.70;2.10;;;17.20;82.50;;;;;;5109199;28;20516;-75
2022/10/01 11:39:38;;;;;;;10.27;2.25;;;17.10;82.60;;;;;;5110780;28;20027;-79
2022/10/01 11:42:11;;;;;;;10.10;1.85;;;17.10;82.70;;;;;;5109263;28;20028;-74
2022/10/01 11:44:49;;;;;;;10.25;1.92;;;17.00;82.70;;;;;;5109861;28;20027;-77
2022/10/01 11:47:24;;;;;;;6.03;1.60;;;17.00;82.80;;;;;;5109079;28;20104;-75
2022/10/01 11:49:58;;;;;;;8.35;1.75;;;17.00;82.90;;;;;;5108948;28;20027;-76
2022/10/01 11:52:51;;;;;;;7.43;1.70;;;17.00;83.00;;;;;;5107759;28;20028;-74
2022/10/01 11:58:56;;;;;;;5.55;1.58;;;17.00;83.20;;;;;;5114935;28;20146;-81
2022/10/01 12:01:36;;;;;;;7.13;1.60;;;16.90;83.20;;;;;;5112966;28;20118;-80
2022/10/01 12:04:28;;;;;;;8.68;1.75;;;16.90;83.20;;;;;;5111291;28;20027;-80
2022/10/01 12:07:04;;;;;;;20.13;2.55;;;17.00;83.10;;;;;;5111120;28;20059;-81
2022/10/01 12:10:03;;;;;;;11.57;2.42;;;17.00;83.10;;;;;;5106344;28;20051;-75
2022/10/01 12:12:32;;;;;;;12.85;2.42;;;17.10;82.90;;;;;;5106356;28;20023;-74
2022/10/01 12:15:18;;;;;;;11.20;1.95;;;17.10;82.50;;;;;;5106463;28;20096;-74
2022/10/01 12:17:52;;;;;;;9.82;2.17;;;17.10;82.40;;;;;;5106732;28;20019;-75
2022/10/01 12:20:28;;;;;;;10.38;2.28;;;17.10;82.20;;;;;;5106655;28;20024;-76
2022/10/01 12:22:56;;;;;;;8.90;2.20;;;17.20;82.30;;;;;;5106303;28;20020;-74
2022/10/01 12:25:31;;;;;;;13.88;2.03;;;17.10;82.20;;;;;;5107916;28;20026;-75
2022/10/01 12:28:09;;;;;;;11.50;2.00;;;17.10;82.20;;;;;;5108413;28;20055;-75
2022/10/01 12:30:50;;;;;;;7.22;2.20;;;17.20;82.30;;;;;;5105486;28;20024;-75
2022/10/01 12:33:36;;;;;;;;;;;17.20;82.10;;;;;;5106933;28;20171;-76
2022/10/01 12:36:24;;;;;;;8.45;1.90;;;17.20;82.00;;;;;;5105916;28;19980;-75
2022/10/01 12:39:04;;;;;;;7.32;2.03;;;17.20;82.00;;;;;;5106071;28;20460;-75
2022/10/01 12:41:56;;;;;;;5.68;1.77;;;17.20;82.00;;;;;;5107290;28;20023;-73
2022/10/01 12:44:51;;;;;;;7.05;1.70;;;17.20;82.10;;;;;;5107279;28;20098;-75
2022/10/01 12:47:37;;;;;;;5.38;1.80;;;17.20;82.00;;;;;;5103178;28;20038;-77
2022/10/01 12:50:21;;;;;;;7.93;1.80;;;17.20;82.00;;;;;;5107615;28;20028;-75
2022/10/01 12:52:54;;;;;;;6.30;1.92;;;17.20;82.00;;;;;;5106152;28;20879;-76
2022/10/01 12:55:41;;;;;;;6.72;1.80;;;17.20;82.00;;;;;;5111721;28;20023;-81
2022/10/01 12:58:32;;;;;;;6.68;1.65;;;17.20;82.10;;;;;;5106381;28;20031;-76
2022/10/01 13:01:12;;;;;;;7.43;1.80;;;17.20;82.10;;;;;;5106201;28;20027;-76
2022/10/01 13:04:03;;;;;;;7.40;1.90;;;17.20;82.10;;;;;;5104689;28;20057;-74
2022/10/01 13:06:43;;;;;;;6.13;1.77;;;17.20;82.10;;;;;;5105511;28;20054;-75
2022/10/01 13:09:43;;;;;;;7.32;1.80;;;17.20;82.10;;;;;;5104049;28;20481;-74
2022/10/01 13:12:25;;;;;;;;;;;17.20;82.20;;;;;;5105060;28;20037;-76
2022/10/01 13:14:52;;;;;;;7.63;1.95;;;17.20;82.20;;;;;;5098981;28;20002;-74
2022/10/01 13:17:36;;;;;;;5.57;1.85;;;17.20;82.10;;;;;;5092720;28;20072;-76
2022/10/01 13:20:22;;;;;;;6.57;1.67;;;17.20;82.50;;;;;;5105243;28;20442;-73
2022/10/01 13:23:15;;;;;;;6.90;1.40;;;17.20;82.00;;;;;;5085853;28;20595;-75
2022/10/01 17:16:05;;;;;;;2.75;1.20;;;16.60;83.80;;;;;;5530024;22;20120;-78
2022/10/01 17:18:31;;;;;;;5.03;1.30;;;16.60;83.80;;;;;;4970438;28;1243710;-81
2022/10/01 17:20:58;;;;;;;3.65;1.38;;;16.60;83.80;;;;;;4989117;28;20066;-80
2022/10/01 17:23:24;;;;;;;6.78;1.52;;;16.50;83.80;;;;;;4974841;28;20023;-84
2022/10/01 17:25:50;;;;;;;3.55;1.48;;;16.50;83.80;;;;;;4975049;28;20445;-80
2022/10/01 17:28:18;;;;;;;3.58;1.40;;;16.60;83.80;;;;;;4975189;28;20026;-79
2022/10/01 17:30:46;;;;;;;4.20;1.45;;;16.60;83.70;;;;;;4977140;28;20026;-79
2022/10/01 17:33:13;;;;;;;3.03;1.15;;;16.60;83.60;;;;;;4976075;28;20023;-79
2022/10/01 17:35:42;;;;;;;5.18;1.40;;;16.60;83.50;;;;;;4976345;28;20487;-78
2022/10/01 17:38:08;;;;;;;3.38;1.30;;;16.70;83.40;;;;;;4975194;28;20062;-78
2022/10/01 17:40:35;;;;;;;6.40;1.30;;;16.60;83.30;;;;;;4974824;28;20034;-79